Time;durP1;ratioP1;P1;durP2;ratioP2;P2;SDS_P1;SDS_P2;PMS_P1;PMS_P2;Temp;Humidity;BMP_temperature;BMP_pressure;BME280_temperature;BME280_humidity;BME280_pressure;Samples;Min_cycle;Max_cycle;Signal;HPM_P1;HPM_P2
2022/12/13 00:01:37;;;;;;;131.43;43.00;;;;;;;;;;5034485;28;20048;-60
2022/12/13 00:04:05;;;;;;;93.70;39.13;;;;;;;;;;5034211;28;20029;-59
2022/12/13 00:06:31;;;;;;;113.25;43.35;;;;;;;;;;5049317;28;20575;-59
2022/12/13 00:08:57;;;;;;;82.63;36.70;;;;;;;;;;5033919;28;20030;-60
2022/12/13 00:11:23;;;;;;;104.38;35.28;;;;;;;;;;5033971;28;20063;-58
2022/12/13 00:13:50;;;;;;;73.32;34.22;;;;;;;;;;5033667;28;20021;-59
2022/12/13 00:16:17;;;;;;;65.75;33.25;;;;;;;;;;5049257;28;20159;-57
2022/12/13 00:18:47;;;;;;;75.50;38.85;;;;;;;;;;5033928;28;20079;-59
2022/12/13 00:21:16;;;;;;;69.15;35.10;;;;;;;;;;5033835;28;20026;-57
2022/12/13 00:23:42;;;;;;;78.38;37.17;;;;;;;;;;5033074;28;20022;-61
2022/12/13 00:26:13;;;;;;;68.18;33.42;;;;;;;;;;5049474;28;20052;-58
2022/12/13 00:28:39;;;;;;;67.30;34.75;;;;;;;;;;5033636;28;20381;-60
2022/12/13 00:31:05;;;;;;;59.45;30.45;;;;;;;;;;5033605;28;20028;-59
2022/12/13 00:33:31;;;;;;;70.85;34.95;;;;;;;;;;5033198;28;20036;-60
2022/12/13 00:35:57;;;;;;;62.53;31.40;;;;;;;;;;5033514;28;20087;-61
2022/12/13 00:38:23;;;;;;;67.82;32.83;;;;;;;;;;5033373;28;20438;-57
2022/12/13 00:40:53;;;;;;;61.97;30.48;;;;;;;;;;5033361;28;20028;-57
2022/12/13 00:43:19;;;;;;;63.15;35.10;;;;;;;;;;5033276;28;20028;-54
2022/12/13 00:45:45;;;;;;;68.10;32.92;;;;;;;;;;5033234;28;20474;-58
2022/12/13 00:48:11;;;;;;;65.30;33.83;;;;;;;;;;5032999;28;20041;-58
2022/12/13 00:50:37;;;;;;;66.68;33.90;;;;;;;;;;5033193;28;20501;-58
2022/12/13 00:53:03;;;;;;;61.15;33.22;;;;;;;;;;5048304;28;20028;-59
2022/12/13 00:55:29;;;;;;;64.93;32.78;;;;;;;;;;5033132;28;20025;-59
2022/12/13 00:57:56;;;;;;;68.35;34.35;;;;;;;;;;5033063;28;20614;-59
2022/12/13 01:00:22;;;;;;;66.35;32.67;;;;;;;;;;5032809;28;20029;-59
2022/12/13 01:02:48;;;;;;;72.85;31.77;;;;;;;;;;5048188;28;20032;-58
2022/12/13 01:05:14;;;;;;;62.67;30.60;;;;;;;;;;5032550;28;20033;-56
2022/12/13 01:07:43;;;;;;;63.58;30.73;;;;;;;;;;5032890;28;20492;-59
2022/12/13 01:10:10;;;;;;;95.95;35.67;;;;;;;;;;5032891;28;20026;-59
2022/12/13 01:12:36;;;;;;;73.40;32.83;;;;;;;;;;5032760;28;20289;-60
2022/12/13 01:15:02;;;;;;;75.70;32.78;;;;;;;;;;5031266;28;20108;-57
2022/12/13 01:17:29;;;;;;;69.72;31.60;;;;;;;;;;5032956;28;20032;-59
2022/12/13 01:19:55;;;;;;;68.00;32.63;;;;;;;;;;5032816;28;20040;-61
2022/12/13 01:22:21;;;;;;;66.72;35.58;;;;;;;;;;5032626;28;20022;-61
2022/12/13 01:24:47;;;;;;;66.95;33.33;;;;;;;;;;5032990;28;20034;-61
2022/12/13 01:27:13;;;;;;;70.50;34.85;;;;;;;;;;5032648;28;20025;-60
2022/12/13 01:29:39;;;;;;;73.20;34.63;;;;;;;;;;5032379;28;20025;-60
2022/12/13 01:32:05;;;;;;;63.05;33.90;;;;;;;;;;5032587;28;20022;-61
2022/12/13 01:34:31;;;;;;;55.22;30.13;;;;;;;;;;5032497;28;20025;-60
2022/12/13 01:36:57;;;;;;;65.80;33.83;;;;;;;;;;5032405;28;20519;-60
2022/12/13 01:39:23;;;;;;;64.30;30.23;;;;;;;;;;5032444;28;20017;-60
2022/12/13 01:41:51;;;;;;;68.63;32.92;;;;;;;;;;5032485;28;20033;-60
2022/12/13 01:44:36;;;;;;;65.30;35.08;;;;;;;;;;5032035;28;20103;-59
2022/12/13 01:47:02;;;;;;;62.38;34.63;;;;;;;;;;5030695;28;20064;-57
2022/12/13 01:49:28;;;;;;;62.72;32.35;;;;;;;;;;5032217;28;20025;-58
2022/12/13 01:51:56;;;;;;;63.65;34.25;;;;;;;;;;5032105;28;20022;-58
2022/12/13 01:54:29;;;;;;;70.25;34.30;;;;;;;;;;5032125;28;20036;-59
2022/12/13 01:56:57;;;;;;;69.28;33.33;;;;;;;;;;5032093;28;20040;-56
2022/12/13 01:59:23;;;;;;;66.45;33.55;;;;;;;;;;5032326;28;20065;-60
2022/12/13 02:01:50;;;;;;;59.80;30.02;;;;;;;;;;5031104;28;20082;-60
2022/12/13 02:04:23;;;;;;;64.63;33.20;;;;;;;;;;5032296;28;20385;-58
2022/12/13 02:06:49;;;;;;;63.97;36.13;;;;;;;;;;5032272;28;20100;-60
2022/12/13 02:09:16;;;;;;;66.28;34.30;;;;;;;;;;5032000;28;20044;-59
2022/12/13 02:11:43;;;;;;;64.90;32.40;;;;;;;;;;5031967;28;20022;-58
2022/12/13 02:14:09;;;;;;;63.67;32.80;;;;;;;;;;5031798;28;20027;-58
2022/12/13 02:16:35;;;;;;;61.60;33.65;;;;;;;;;;5032090;28;20060;-61
2022/12/13 02:19:20;;;;;;;64.60;32.42;;;;;;;;;;5032064;28;20057;-59
2022/12/13 02:22:01;;;;;;;73.95;33.63;;;;;;;;;;5032056;28;20025;-59
2022/12/13 02:24:36;;;;;;;63.97;31.20;;;;;;;;;;5031880;28;20488;-58
2022/12/13 02:27:05;;;;;;;71.75;35.22;;;;;;;;;;5031780;28;20028;-59
2022/12/13 02:30:03;;;;;;;74.45;33.35;;;;;;;;;;5030650;28;20025;-58
2022/12/13 02:32:32;;;;;;;67.82;31.35;;;;;;;;;;4987730;28;20033;-59
2022/12/13 02:35:17;;;;;;;68.50;29.60;;;;;;;;;;5031981;28;20033;-60
2022/12/13 02:37:48;;;;;;;65.68;30.58;;;;;;;;;;5032133;28;20033;-57
2022/12/13 02:40:26;;;;;;;80.15;27.52;;;;;;;;;;5030457;28;20026;-59
2022/12/13 02:43:04;;;;;;;58.75;31.58;;;;;;;;;;5031601;28;20029;-58
2022/12/13 02:45:36;;;;;;;89.80;31.08;;;;;;;;;;5032795;28;20030;-54
2022/12/13 02:48:04;;;;;;;110.93;32.10;;;;;;;;;;5034066;28;20060;-55
2022/12/13 02:50:31;;;;;;;159.13;35.92;;;;;;;;;;5035530;28;20029;-59
2022/12/13 02:52:58;;;;;;;90.88;30.92;;;;;;;;;;5035477;28;20029;-59
2022/12/13 02:55:24;;;;;;;71.55;29.73;;;;;;;;;;5035295;28;20385;-58
2022/12/13 02:57:50;;;;;;;58.80;30.35;;;;;;;;;;5033987;28;20047;-58
2022/12/13 03:00:16;;;;;;;62.65;27.02;;;;;;;;;;5035495;28;20033;-57
2022/12/13 03:02:42;;;;;;;67.32;29.13;;;;;;;;;;5035328;28;20037;-56
2022/12/13 03:08:11;;;;;;;55.72;27.50;;;;;;;;;;5035176;28;20117;-57
2022/12/13 03:10:42;;;;;;;52.72;28.33;;;;;;;;;;5035122;28;20030;-58
2022/12/13 03:15:57;;;;;;;54.53;28.05;;;;;;;;;;5035504;28;20508;-57
2022/12/13 03:18:24;;;;;;;57.15;26.48;;;;;;;;;;5033786;28;20448;-56
2022/12/13 03:20:50;;;;;;;54.55;27.92;;;;;;;;;;5034961;28;20029;-57
2022/12/13 03:23:17;;;;;;;53.28;28.45;;;;;;;;;;5033419;28;20091;-59
2022/12/13 03:25:43;;;;;;;54.38;28.10;;;;;;;;;;5034843;28;20028;-58
2022/12/13 03:28:09;;;;;;;45.58;25.30;;;;;;;;;;5034839;28;20021;-60
2022/12/13 03:30:35;;;;;;;45.55;25.38;;;;;;;;;;5034767;28;20100;-58
2022/12/13 03:33:01;;;;;;;42.17;23.23;;;;;;;;;;5034481;28;20105;-56
2022/12/13 03:35:28;;;;;;;41.80;24.38;;;;;;;;;;5034680;28;20052;-60
2022/12/13 03:37:54;;;;;;;45.08;25.02;;;;;;;;;;5034617;28;20393;-56
2022/12/13 03:40:20;;;;;;;41.08;24.13;;;;;;;;;;5034761;28;20454;-57
2022/12/13 03:42:47;;;;;;;52.03;25.98;;;;;;;;;;5034648;28;20486;-59
2022/12/13 03:45:13;;;;;;;55.10;27.17;;;;;;;;;;5034260;28;20017;-59
2022/12/13 03:47:39;;;;;;;47.45;26.25;;;;;;;;;;5033081;28;20504;-58
2022/12/13 03:50:05;;;;;;;47.28;27.25;;;;;;;;;;5034386;28;20033;-61
2022/12/13 03:52:31;;;;;;;51.90;26.83;;;;;;;;;;5033019;28;20026;-56
2022/12/13 03:54:57;;;;;;;52.72;29.88;;;;;;;;;;5033936;28;20450;-56
2022/12/13 03:57:23;;;;;;;61.60;29.08;;;;;;;;;;5032948;28;20022;-59
2022/12/13 03:59:49;;;;;;;59.35;27.40;;;;;;;;;;5034347;28;20552;-55
2022/12/13 04:02:15;;;;;;;59.45;28.50;;;;;;;;;;5032992;28;20120;-55
2022/12/13 04:04:41;;;;;;;58.90;27.52;;;;;;;;;;5033949;28;20028;-54
2022/12/13 04:07:07;;;;;;;52.08;26.83;;;;;;;;;;5034028;28;20420;-55
2022/12/13 04:09:33;;;;;;;52.13;26.33;;;;;;;;;;5033974;28;20105;-54
2022/12/13 04:14:43;;;;;;;50.20;25.25;;;;;;;;;;5033745;28;20037;-57
2022/12/13 04:17:09;;;;;;;56.95;27.67;;;;;;;;;;5032450;28;20026;-57
2022/12/13 04:19:35;;;;;;;48.85;25.40;;;;;;;;;;5033849;28;20025;-56
2022/12/13 04:22:01;;;;;;;43.40;25.25;;;;;;;;;;5033807;28;20049;-58
2022/12/13 04:24:27;;;;;;;48.33;27.42;;;;;;;;;;5032106;28;20071;-58
2022/12/13 04:26:53;;;;;;;50.20;25.27;;;;;;;;;;5033533;28;20025;-57
2022/12/13 04:29:19;;;;;;;45.13;24.38;;;;;;;;;;5032323;28;20030;-58
2022/12/13 04:31:45;;;;;;;51.13;27.38;;;;;;;;;;5033708;28;20113;-55
2022/12/13 04:34:11;;;;;;;50.25;26.33;;;;;;;;;;5033124;28;20466;-57
2022/12/13 04:36:37;;;;;;;45.58;24.60;;;;;;;;;;5033469;28;20022;-56
2022/12/13 04:39:04;;;;;;;51.83;27.55;;;;;;;;;;5032202;28;20379;-60
2022/12/13 04:41:34;;;;;;;50.47;25.48;;;;;;;;;;5032126;28;20553;-58
2022/12/13 04:44:01;;;;;;;50.00;26.52;;;;;;;;;;5033205;28;20033;-56
2022/12/13 04:46:27;;;;;;;51.63;25.70;;;;;;;;;;5033028;28;20033;-58
2022/12/13 04:48:53;;;;;;;48.25;27.17;;;;;;;;;;5033668;28;20029;-55
2022/12/13 04:51:19;;;;;;;45.63;24.88;;;;;;;;;;5033443;28;20029;-58
2022/12/13 04:53:45;;;;;;;46.00;25.13;;;;;;;;;;5031520;28;20053;-57
2022/12/13 04:56:11;;;;;;;51.28;27.05;;;;;;;;;;5032817;28;20056;-56
2022/12/13 04:58:37;;;;;;;46.63;24.95;;;;;;;;;;5032990;28;20049;-58
2022/12/13 05:01:06;;;;;;;50.35;25.17;;;;;;;;;;5033044;28;20053;-58
2022/12/13 05:03:33;;;;;;;44.35;24.95;;;;;;;;;;5032969;28;20048;-57
2022/12/13 05:05:59;;;;;;;47.60;26.88;;;;;;;;;;5032889;28;20398;-57
2022/12/13 05:08:25;;;;;;;54.08;26.10;;;;;;;;;;5031096;28;20021;-54
2022/12/13 05:10:50;;;;;;;51.90;26.63;;;;;;;;;;5031445;28;20068;-55
2022/12/13 05:13:16;;;;;;;47.58;24.05;;;;;;;;;;5032745;28;20554;-57
2022/12/13 05:15:42;;;;;;;47.92;25.15;;;;;;;;;;5031590;28;20022;-57
2022/12/13 05:18:09;;;;;;;45.13;25.23;;;;;;;;;;5032549;28;20374;-55
2022/12/13 05:20:35;;;;;;;40.75;23.85;;;;;;;;;;5032561;28;20025;-55
2022/12/13 05:23:01;;;;;;;51.60;25.83;;;;;;;;;;5032328;28;20029;-58
2022/12/13 05:25:27;;;;;;;45.42;27.05;;;;;;;;;;5032400;28;20045;-56
2022/12/13 05:27:53;;;;;;;48.15;25.10;;;;;;;;;;5031310;28;20517;-56
2022/12/13 05:30:19;;;;;;;42.05;23.33;;;;;;;;;;5032562;28;20082;-61
2022/12/13 05:32:45;;;;;;;44.45;26.83;;;;;;;;;;5032387;28;20390;-55
2022/12/13 05:35:12;;;;;;;46.08;25.60;;;;;;;;;;5030940;28;20029;-55
2022/12/13 05:37:38;;;;;;;45.67;25.55;;;;;;;;;;5032396;28;20401;-55
2022/12/13 05:40:05;;;;;;;47.13;26.70;;;;;;;;;;5032760;28;20022;-59
2022/12/13 05:42:31;;;;;;;197.40;91.85;;;;;;;;;;5031038;28;20025;-56
2022/12/13 05:44:58;;;;;;;63.92;32.72;;;;;;;;;;5031817;28;20303;-58
2022/12/13 05:47:25;;;;;;;53.05;29.02;;;;;;;;;;5053338;23;20460;-62
2022/12/13 05:49:51;;;;;;;48.75;29.20;;;;;;;;;;5030636;28;20033;-66
2022/12/13 05:52:20;;;;;;;52.22;28.90;;;;;;;;;;5031189;28;20032;-66
2022/12/13 05:54:46;;;;;;;58.35;29.35;;;;;;;;;;5046284;28;20029;-68
2022/12/13 05:57:12;;;;;;;53.92;28.90;;;;;;;;;;5030616;28;20064;-68
2022/12/13 05:59:38;;;;;;;57.65;30.92;;;;;;;;;;5030547;28;20037;-65
2022/12/13 06:02:04;;;;;;;57.38;30.77;;;;;;;;;;5029059;28;20025;-65
2022/12/13 06:04:30;;;;;;;56.55;31.17;;;;;;;;;;5031181;28;20030;-67
2022/12/13 06:06:56;;;;;;;55.00;28.75;;;;;;;;;;5029860;28;20075;-68
2022/12/13 06:09:23;;;;;;;64.10;32.90;;;;;;;;;;5030576;28;20500;-67
2022/12/13 06:11:49;;;;;;;47.33;27.50;;;;;;;;;;5029350;28;20032;-67
2022/12/13 06:14:15;;;;;;;56.30;29.92;;;;;;;;;;5028962;28;20489;-66
2022/12/13 06:16:41;;;;;;;55.38;29.25;;;;;;;;;;5028835;28;20033;-67
2022/12/13 06:19:07;;;;;;;52.22;29.63;;;;;;;;;;5025888;28;20524;-66
2022/12/13 06:21:33;;;;;;;54.97;30.83;;;;;;;;;;5028046;28;20033;-65
2022/12/13 06:24:00;;;;;;;52.08;30.10;;;;;;;;;;5008416;28;20462;-65
2022/12/13 06:26:26;;;;;;;60.05;30.55;;;;;;;;;;5015927;28;20032;-65
2022/12/13 06:28:52;;;;;;;52.10;28.70;;;;;;;;;;5030518;28;20025;-66
2022/12/13 06:31:18;;;;;;;50.58;28.23;;;;;;;;;;5031198;28;20021;-64
2022/12/13 06:33:44;;;;;;;51.40;28.42;;;;;;;;;;5030324;28;20375;-66
2022/12/13 06:36:10;;;;;;;57.90;30.42;;;;;;;;;;5030340;28;20037;-66
2022/12/13 06:38:36;;;;;;;49.40;29.60;;;;;;;;;;5030696;28;20485;-65
2022/12/13 06:41:06;;;;;;;55.30;30.77;;;;;;;;;;5029505;28;20036;-67
2022/12/13 06:43:32;;;;;;;52.50;28.40;;;;;;;;;;5030154;28;20102;-66
2022/12/13 06:45:58;;;;;;;58.85;28.95;;;;;;;;;;5030598;28;20025;-67
2022/12/13 06:48:24;;;;;;;54.50;29.15;;;;;;;;;;5030539;28;20037;-65
2022/12/13 06:50:50;;;;;;;57.58;29.90;;;;;;;;;;5030595;28;20416;-67
2022/12/13 06:53:16;;;;;;;51.38;28.85;;;;;;;;;;5030736;28;20041;-68
2022/12/13 06:55:42;;;;;;;58.33;28.88;;;;;;;;;;5030266;28;20052;-68
2022/12/13 06:58:08;;;;;;;51.45;30.00;;;;;;;;;;5029958;28;20037;-67
2022/12/13 07:00:34;;;;;;;54.58;27.73;;;;;;;;;;5031786;28;20018;-66
2022/12/13 07:03:00;;;;;;;51.08;28.52;;;;;;;;;;5031659;28;20032;-66
2022/12/13 07:05:27;;;;;;;55.30;29.30;;;;;;;;;;5031331;28;20029;-68
2022/12/13 07:07:53;;;;;;;52.92;28.75;;;;;;;;;;5030218;28;20030;-69
2022/12/13 07:10:20;;;;;;;52.40;30.25;;;;;;;;;;5031186;28;20405;-65
2022/12/13 07:12:46;;;;;;;59.95;30.15;;;;;;;;;;5032761;28;20108;-64
2022/12/13 07:15:12;;;;;;;49.05;29.13;;;;;;;;;;5030456;28;20089;-65
2022/12/13 07:17:38;;;;;;;54.30;28.17;;;;;;;;;;5030842;28;20021;-69
2022/12/13 07:20:09;;;;;;;53.00;28.80;;;;;;;;;;5030488;28;20025;-66
2022/12/13 07:22:36;;;;;;;56.35;29.52;;;;;;;;;;5029628;28;20406;-67
2022/12/13 07:25:03;;;;;;;54.75;28.00;;;;;;;;;;5028979;28;20519;-65
2022/12/13 07:27:29;;;;;;;50.00;28.37;;;;;;;;;;5030787;28;20087;-64
2022/12/13 07:29:56;;;;;;;55.17;32.67;;;;;;;;;;5029277;28;20036;-60
2022/12/13 07:32:22;;;;;;;55.33;31.30;;;;;;;;;;5033382;28;20017;-65
2022/12/13 07:34:49;;;;;;;52.08;29.23;;;;;;;;;;5034114;28;20022;-66
2022/12/13 07:37:15;;;;;;;54.45;30.85;;;;;;;;;;5034253;28;20393;-65
2022/12/13 07:39:41;;;;;;;47.55;28.23;;;;;;;;;;5034472;28;20032;-67
2022/12/13 07:42:07;;;;;;;54.40;27.60;;;;;;;;;;5032693;28;20030;-66
2022/12/13 07:44:33;;;;;;;52.47;28.45;;;;;;;;;;5032408;28;20028;-67
2022/12/13 07:46:59;;;;;;;54.03;27.58;;;;;;;;;;5032448;28;20037;-66
2022/12/13 07:49:25;;;;;;;54.75;29.33;;;;;;;;;;5034248;28;20032;-63
2022/12/13 07:51:51;;;;;;;58.72;29.90;;;;;;;;;;5032775;28;20087;-65
2022/12/13 07:54:17;;;;;;;56.35;28.25;;;;;;;;;;5032752;28;20036;-64
2022/12/13 07:56:44;;;;;;;54.53;27.77;;;;;;;;;;5034431;28;20041;-65
2022/12/13 07:59:10;;;;;;;58.05;29.48;;;;;;;;;;5034456;28;20105;-65
2022/12/13 08:01:36;;;;;;;57.33;30.23;;;;;;;;;;5033308;28;20461;-64
2022/12/13 08:04:02;;;;;;;59.35;30.13;;;;;;;;;;5031623;28;20038;-66
2022/12/13 08:06:28;;;;;;;66.28;31.48;;;;;;;;;;5033415;28;20026;-66
2022/12/13 08:08:57;;;;;;;56.05;31.67;;;;;;;;;;5033049;28;20049;-66
2022/12/13 08:11:23;;;;;;;68.10;30.63;;;;;;;;;;5033571;28;20037;-67
2022/12/13 08:13:50;;;;;;;58.10;30.27;;;;;;;;;;5032985;28;20038;-67
2022/12/13 08:16:17;;;;;;;60.35;33.45;;;;;;;;;;5033584;28;20101;-67
2022/12/13 08:18:43;;;;;;;63.03;31.23;;;;;;;;;;5033252;28;20069;-66
2022/12/13 08:21:09;;;;;;;60.22;32.40;;;;;;;;;;5032842;28;20026;-66
2022/12/13 08:23:36;;;;;;;56.65;30.45;;;;;;;;;;5032310;28;20144;-72
2022/12/13 08:26:03;;;;;;;54.83;30.17;;;;;;;;;;5031928;28;20070;-66
2022/12/13 08:28:30;;;;;;;58.88;33.15;;;;;;;;;;5033066;28;20043;-67
2022/12/13 08:31:02;;;;;;;59.45;31.13;;;;;;;;;;5032774;28;20117;-67
2022/12/13 08:33:28;;;;;;;54.40;29.80;;;;;;;;;;5032387;28;20057;-67
2022/12/13 08:35:54;;;;;;;55.72;30.20;;;;;;;;;;5032755;28;20014;-67
2022/12/13 08:38:20;;;;;;;57.92;30.05;;;;;;;;;;5032805;28;20104;-67
2022/12/13 08:40:47;;;;;;;55.25;29.15;;;;;;;;;;5032908;28;20335;-66
2022/12/13 08:43:13;;;;;;;49.55;28.55;;;;;;;;;;5031783;28;20029;-66
2022/12/13 08:45:39;;;;;;;55.67;28.80;;;;;;;;;;5032634;28;20026;-66
2022/12/13 08:48:05;;;;;;;48.75;28.98;;;;;;;;;;5032296;28;20571;-64
2022/12/13 08:50:31;;;;;;;52.25;26.05;;;;;;;;;;5030946;28;20175;-67
2022/12/13 08:52:57;;;;;;;63.00;29.15;;;;;;;;;;5032058;28;20096;-67
2022/12/13 08:55:23;;;;;;;46.55;27.02;;;;;;;;;;5031938;28;20021;-67
2022/12/13 08:57:49;;;;;;;51.85;29.80;;;;;;;;;;5031934;28;20022;-68
2022/12/13 09:00:17;;;;;;;50.55;27.70;;;;;;;;;;5032343;28;20029;-68
2022/12/13 09:02:43;;;;;;;53.97;29.63;;;;;;;;;;5031067;28;20030;-67
2022/12/13 09:05:10;;;;;;;49.42;27.85;;;;;;;;;;5031732;28;20397;-68
2022/12/13 09:07:39;;;;;;;51.38;26.10;;;;;;;;;;5031968;28;20029;-68
2022/12/13 09:10:06;;;;;;;51.90;27.13;;;;;;;;;;5032493;28;20021;-68
2022/12/13 09:12:32;;;;;;;55.15;27.75;;;;;;;;;;5028815;28;20038;-68
2022/12/13 09:14:58;;;;;;;47.33;26.98;;;;;;;;;;5031188;28;20047;-68
2022/12/13 09:17:24;;;;;;;51.38;28.38;;;;;;;;;;5032445;28;20028;-68
2022/12/13 09:19:51;;;;;;;57.70;28.25;;;;;;;;;;5032524;28;20171;-68
2022/12/13 09:22:17;;;;;;;50.50;28.30;;;;;;;;;;5031898;28;20025;-67
2022/12/13 09:24:43;;;;;;;52.20;27.20;;;;;;;;;;5031905;28;20097;-67
2022/12/13 09:27:10;;;;;;;57.33;28.10;;;;;;;;;;5032389;28;20028;-67
2022/12/13 09:29:36;;;;;;;51.10;29.30;;;;;;;;;;5032312;28;20105;-68
2022/12/13 09:32:02;;;;;;;52.05;27.38;;;;;;;;;;5031892;28;20071;-68
2022/12/13 09:34:28;;;;;;;50.60;26.13;;;;;;;;;;5031967;28;20033;-67
2022/12/13 09:36:55;;;;;;;53.92;28.85;;;;;;;;;;5031683;28;20026;-68
2022/12/13 09:39:21;;;;;;;46.92;25.63;;;;;;;;;;5031754;28;20021;-68
2022/12/13 09:41:49;;;;;;;43.90;24.98;;;;;;;;;;5032029;28;20029;-67
2022/12/13 09:44:26;;;;;;;44.45;24.40;;;;;;;;;;5030252;28;20115;-68
2022/12/13 09:46:53;;;;;;;47.88;26.77;;;;;;;;;;5030507;28;20064;-67
2022/12/13 09:49:25;;;;;;;50.03;24.92;;;;;;;;;;5030606;28;20038;-67
2022/12/13 09:51:56;;;;;;;49.22;26.75;;;;;;;;;;5030429;28;20663;-68
2022/12/13 09:54:23;;;;;;;50.58;26.75;;;;;;;;;;5031064;28;20409;-67
2022/12/13 09:56:50;;;;;;;42.25;24.05;;;;;;;;;;5031120;28;20018;-67
2022/12/13 09:59:16;;;;;;;51.00;27.90;;;;;;;;;;5031766;28;20025;-67
2022/12/13 10:01:43;;;;;;;47.67;25.05;;;;;;;;;;5030427;28;20485;-68
2022/12/13 10:04:12;;;;;;;44.03;24.58;;;;;;;;;;5030953;28;20061;-68
2022/12/13 10:06:38;;;;;;;46.30;25.92;;;;;;;;;;5031192;28;20022;-68
2022/12/13 10:09:07;;;;;;;45.92;24.10;;;;;;;;;;5031110;28;20054;-67
2022/12/13 10:11:34;;;;;;;38.42;22.80;;;;;;;;;;5031123;28;20123;-67
2022/12/13 10:14:06;;;;;;;42.72;23.75;;;;;;;;;;5030622;28;20036;-68
2022/12/13 10:16:35;;;;;;;45.08;24.92;;;;;;;;;;5031098;28;20049;-67
2022/12/13 10:19:20;;;;;;;44.55;24.52;;;;;;;;;;5030718;28;20120;-68
2022/12/13 10:21:47;;;;;;;50.30;27.75;;;;;;;;;;5011258;28;20022;-68
2022/12/13 10:24:16;;;;;;;52.03;26.67;;;;;;;;;;5011390;28;20049;-68
2022/12/13 10:26:42;;;;;;;46.67;25.63;;;;;;;;;;5010491;28;20393;-68
2022/12/13 10:29:10;;;;;;;46.08;27.30;;;;;;;;;;5009965;28;20036;-67
2022/12/13 10:31:44;;;;;;;49.70;28.35;;;;;;;;;;5011663;28;20393;-68
2022/12/13 10:34:30;;;;;;;47.63;28.98;;;;;;;;;;5010457;28;20040;-68
2022/12/13 10:36:56;;;;;;;41.92;25.52;;;;;;;;;;5010921;28;20097;-67
2022/12/13 10:39:39;;;;;;;47.65;25.27;;;;;;;;;;5008005;28;20162;-68
2022/12/13 10:42:15;;;;;;;47.97;27.02;;;;;;;;;;5010554;28;20475;-68
2022/12/13 10:44:41;;;;;;;49.63;28.77;;;;;;;;;;5010308;28;20029;-69
2022/12/13 10:47:10;;;;;;;42.45;25.90;;;;;;;;;;5010544;28;20030;-67
2022/12/13 10:49:45;;;;;;;43.72;25.67;;;;;;;;;;5009788;28;20029;-68
2022/12/13 10:52:30;;;;;;;41.78;25.23;;;;;;;;;;5010997;28;20097;-68
2022/12/13 10:54:57;;;;;;;38.50;22.90;;;;;;;;;;5010825;28;20037;-68
2022/12/13 10:57:24;;;;;;;35.10;23.48;;;;;;;;;;5010846;28;20034;-66
2022/12/13 10:59:50;;;;;;;35.70;24.13;;;;;;;;;;5010571;28;20034;-66
2022/12/13 11:02:28;;;;;;;35.40;24.52;;;;;;;;;;5011408;28;20070;-65
2022/12/13 11:04:56;;;;;;;36.88;23.80;;;;;;;;;;5010233;28;20137;-66
2022/12/13 11:07:25;;;;;;;34.28;24.90;;;;;;;;;;5013249;28;20034;-67
2022/12/13 11:09:51;;;;;;;;;;;;;;;;;;5027824;28;20020;-67
2022/12/13 11:12:22;;;;;;;33.63;25.80;;;;;;;;;;5033085;28;19905;-66
2022/12/13 11:14:50;;;;;;;36.38;26.50;;;;;;;;;;5033965;28;20500;-66
2022/12/13 11:17:19;;;;;;;34.38;26.40;;;;;;;;;;5033851;28;20035;-66
2022/12/13 11:19:48;;;;;;;34.38;26.25;;;;;;;;;;5033207;28;20025;-67
2022/12/13 11:22:22;;;;;;;32.38;26.00;;;;;;;;;;5034597;28;20044;-66
2022/12/13 11:24:50;;;;;;;32.20;25.00;;;;;;;;;;5034718;28;20021;-66
2022/12/13 11:27:35;;;;;;;32.30;24.17;;;;;;;;;;5034055;28;20044;-67
2022/12/13 11:30:08;;;;;;;34.45;26.60;;;;;;;;;;5033806;28;20056;-67
2022/12/13 11:32:37;;;;;;;32.50;26.60;;;;;;;;;;5034888;28;20026;-67
2022/12/13 11:35:12;;;;;;;33.38;28.38;;;;;;;;;;5034547;28;20032;-67
2022/12/13 11:37:57;;;;;;;33.00;26.85;;;;;;;;;;5033475;28;20025;-65
2022/12/13 11:40:26;;;;;;;32.25;24.80;;;;;;;;;;5033368;28;20105;-65
2022/12/13 11:42:52;;;;;;;32.25;25.80;;;;;;;;;;5033780;28;20052;-68
2022/12/13 11:45:21;;;;;;;29.60;24.23;;;;;;;;;;5032670;28;20073;-67
2022/12/13 11:47:57;;;;;;;32.00;25.75;;;;;;;;;;5049080;22;20026;-63
2022/12/13 11:50:30;;;;;;;30.58;24.50;;;;;;;;;;5013818;28;20046;-63
2022/12/13 11:52:59;;;;;;;30.33;25.10;;;;;;;;;;5014118;28;20030;-63
2022/12/13 11:55:44;;;;;;;33.50;25.30;;;;;;;;;;5013917;28;20500;-61
2022/12/13 11:58:13;;;;;;;29.85;24.40;;;;;;;;;;5029324;28;20018;-62
2022/12/13 12:01:00;;;;;;;29.45;23.13;;;;;;;;;;5014102;28;20096;-63
2022/12/13 12:03:44;;;;;;;30.73;23.58;;;;;;;;;;5013724;28;20224;-61
2022/12/13 12:06:32;;;;;;;29.10;23.17;;;;;;;;;;5013649;28;20105;-64
2022/12/13 12:09:02;;;;;;;32.65;25.67;;;;;;;;;;5013507;28;20017;-63
2022/12/13 12:11:40;;;;;;;34.03;25.15;;;;;;;;;;5012424;28;20541;-61
2022/12/13 12:14:06;;;;;;;30.10;24.23;;;;;;;;;;5012219;28;20435;-63
2022/12/13 12:16:40;;;;;;;31.13;24.15;;;;;;;;;;5014034;28;20088;-63
2022/12/13 12:19:14;;;;;;;31.48;23.83;;;;;;;;;;5012222;28;20049;-63
2022/12/13 12:21:43;;;;;;;29.92;23.42;;;;;;;;;;5013658;28;20026;-62
2022/12/13 12:24:22;;;;;;;30.58;24.20;;;;;;;;;;5013575;28;20025;-62
2022/12/13 12:26:55;;;;;;;31.17;23.58;;;;;;;;;;5013887;28;20100;-63
2022/12/13 12:29:31;;;;;;;32.90;24.83;;;;;;;;;;5013667;28;20022;-63
2022/12/13 12:32:06;;;;;;;32.92;23.73;;;;;;;;;;5013861;28;20026;-63
2022/12/13 12:34:53;;;;;;;29.17;24.25;;;;;;;;;;5013359;28;20068;-63
2022/12/13 12:37:46;;;;;;;29.45;23.17;;;;;;;;;;5013099;28;20025;-64
2022/12/13 12:40:21;;;;;;;33.20;26.05;;;;;;;;;;5011477;28;20038;-63
2022/12/13 12:43:04;;;;;;;33.10;24.80;;;;;;;;;;5012688;28;20100;-63
2022/12/13 12:45:46;;;;;;;29.92;23.23;;;;;;;;;;5012710;28;20034;-61
2022/12/13 12:48:15;;;;;;;31.55;23.83;;;;;;;;;;5012791;28;20069;-60
2022/12/13 12:50:44;;;;;;;30.88;24.05;;;;;;;;;;5004180;28;20036;-58
2022/12/13 12:53:10;;;;;;;30.92;23.77;;;;;;;;;;5000826;28;20082;-62
2022/12/13 12:55:42;;;;;;;30.35;23.88;;;;;;;;;;5006401;28;20025;-63
2022/12/13 12:58:23;;;;;;;32.08;23.98;;;;;;;;;;4999172;28;20105;-61
2022/12/13 13:01:09;;;;;;;34.13;23.38;;;;;;;;;;4992851;28;20121;-61
2022/12/13 13:03:36;;;;;;;31.73;24.55;;;;;;;;;;5009393;28;20026;-61
2022/12/13 13:06:02;;;;;;;31.42;23.02;;;;;;;;;;5012300;28;20454;-62
2022/12/13 13:08:33;;;;;;;29.50;24.13;;;;;;;;;;5010288;28;20040;-60
2022/12/13 13:11:00;;;;;;;28.92;23.55;;;;;;;;;;5000570;28;20025;-62
2022/12/13 13:13:47;;;;;;;28.75;24.15;;;;;;;;;;5012389;28;20022;-62
2022/12/13 13:16:32;;;;;;;28.67;23.13;;;;;;;;;;5011681;28;20030;-61
2022/12/13 13:19:02;;;;;;;29.38;23.02;;;;;;;;;;5004766;28;20114;-61
2022/12/13 13:21:32;;;;;;;32.80;25.50;;;;;;;;;;5007444;28;20363;-63
2022/12/13 13:24:01;;;;;;;29.40;23.55;;;;;;;;;;5010506;28;20164;-61
2022/12/13 13:26:35;;;;;;;30.23;24.13;;;;;;;;;;5004464;28;20034;-61
2022/12/13 13:29:20;;;;;;;32.65;25.17;;;;;;;;;;4990490;28;20026;-63
2022/12/13 13:32:05;;;;;;;32.92;23.88;;;;;;;;;;4991245;28;20037;-63
2022/12/13 13:34:36;;;;;;;33.42;24.00;;;;;;;;;;4995047;28;20083;-61
2022/12/13 13:37:03;;;;;;;30.58;23.13;;;;;;;;;;5012543;28;20054;-61
2022/12/13 13:39:35;;;;;;;34.38;24.25;;;;;;;;;;5010396;28;20033;-60
2022/12/13 13:42:13;;;;;;;33.75;24.58;;;;;;;;;;5012431;28;20022;-62
2022/12/13 13:44:45;;;;;;;32.83;23.52;;;;;;;;;;5011225;28;20156;-59
2022/12/13 13:47:23;;;;;;;32.95;24.42;;;;;;;;;;5011960;28;20029;-59
2022/12/13 13:50:07;;;;;;;31.42;22.92;;;;;;;;;;5011244;28;20513;-64
2022/12/13 13:52:34;;;;;;;30.65;20.67;;;;;;;;;;5002324;28;20030;-61
2022/12/13 13:55:28;;;;;;;32.03;21.33;;;;;;;;;;4999578;28;20030;-59
2022/12/13 13:57:59;;;;;;;29.15;19.92;;;;;;;;;;4997236;28;20034;-60
2022/12/13 14:00:41;;;;;;;32.08;21.50;;;;;;;;;;4653929;28;10000531;-63
2022/12/13 14:03:22;;;;;;;32.10;20.95;;;;;;;;;;5001976;28;20108;-60
2022/12/13 14:06:07;;;;;;;31.35;20.88;;;;;;;;;;4992002;28;20096;-63
2022/12/13 14:08:42;;;;;;;32.30;20.38;;;;;;;;;;4995830;28;20025;-61
2022/12/13 14:11:11;;;;;;;34.38;21.30;;;;;;;;;;4992084;28;20027;-58
2022/12/13 14:13:43;;;;;;;32.97;21.05;;;;;;;;;;4991727;28;20093;-61
2022/12/13 14:16:09;;;;;;;31.45;20.60;;;;;;;;;;4992244;28;20053;-61
2022/12/13 14:18:45;;;;;;;35.70;21.33;;;;;;;;;;5010147;28;20030;-60
2022/12/13 14:21:20;;;;;;;32.42;19.98;;;;;;;;;;4998394;28;20028;-59
2022/12/13 14:24:09;;;;;;;34.53;20.70;;;;;;;;;;4991716;28;20026;-61
2022/12/13 14:26:54;;;;;;;35.90;20.48;;;;;;;;;;4986389;28;20552;-61
2022/12/13 14:29:27;;;;;;;33.17;20.02;;;;;;;;;;4992095;28;20138;-62
2022/12/13 14:31:53;;;;;;;37.10;21.77;;;;;;;;;;4992195;28;20113;-61
2022/12/13 14:34:23;;;;;;;35.70;21.27;;;;;;;;;;4998304;28;20029;-62
2022/12/13 14:36:55;;;;;;;33.83;19.70;;;;;;;;;;5011704;28;20026;-60